Maximilian Franke

Olheiro - Bayern Munich
17 Jul 2027
Sábado
Processo

Personalidade

Adaptabilidade (8) Ambição (1) Controvérsia (1) Lealdade (8) Pressão (8) Profissionalismo (20) Espírito Esportivo (17) Temperamento (20)

Perfil

Estilo de Treinamento Democrático
Licença Continental A
Determinação 16
Gestão de Pessoas 15
Motivação 9
Disciplina 7
Satisfação no Trabalho
100%
Fadiga
0%
Função Olheiro
Salário 144.5K p/s
Contrato 14.03.2030

Desempenho

Comportamento Bom
Eficácia do Treinamento
73%
Desenvolvimento do Jogador
75%
Prevenção de Lesões
40%
Implementação Tática
65%

Eventos Recentes

Participou de uma reunião de recrutamento agora
Avaliou um jogador 7d atrás
Participou de uma reunião de recrutamento 7d atrás
Recomendou um alvo de transferência 7d atrás
Participou de uma reunião de recrutamento 7d atrás
Recomendou um alvo de transferência 14d atrás
Participou de uma reunião de recrutamento 14d atrás
Apresentou um dossiê à direção 14d atrás

Monitorando agora

126
Jogador Clube Status Habilidade Confiança Observado Última observação Último voto
Rúben Dias Manchester City Ativo 171 / 170 40% 4 05.07.2027 -
Martín Zubimendi Arsenal Ativo 166 / 163 40% 5 05.07.2027 -
Bruno Fernandes Manchester United Perdido 180 / 173 40% 1 05.07.2027 -
Bilal El Khannouss VfB Stuttgart Perdido 142 / 150 83% 1 21.06.2027 Aprovar
Miloš Kerkez Liverpool Ativo 159 / 160 40% 14 16.06.2027 -
Alejandro Grimaldo Atlético Madrid Perdido 163 / 161 40% 12 16.06.2027 -
Denzel Dumfries Real Madrid Perdido 163 / 160 40% 3 16.06.2027 -
Jeremie Frimpong Liverpool Ativo 163 / 162 40% 8 15.06.2027 -
Marc Guéhi Manchester City Ativo 169 / 166 40% 6 15.06.2027 -
Bruno Guimarães Arsenal Ativo 171 / 167 40% 2 15.06.2027 -
Manu Koné AS Roma Ativo 164 / 166 40% 9 14.06.2027 -
Alexis Mac Allister Liverpool Ativo 163 / 162 40% 5 14.06.2027 -
Franck Honorat Borussia Mönchengladbach Ativo 139 / 144 83% 1 02.06.2027 Aprovar
Joško Gvardiol Manchester City Rejeitado 166 / 167 40% 16 01.06.2027 Rejeitar
Boubacar Kamara Aston Villa Ativo 163 / 164 40% 7 01.06.2027 -
Nuno Mendes Paris Saint-Germain Ativo 173 / 169 40% 5 31.05.2027 -
Dominik Szoboszlai Liverpool Ativo 165 / 161 40% 1 31.05.2027 -
Pablo Barrios Atlético Madrid Ativo 160 / 160 40% 9 29.05.2027 -
Vitinha Paris Saint-Germain Ativo 182 / 182 40% 8 29.05.2027 -
Frenkie de Jong Barcelona Ativo 170 / 166 40% 6 28.05.2027 -
Nico González Newcastle United Ativo 164 / 165 40% 22 27.05.2027 -
Khéphren Thuram Juventus Ativo 156 / 156 40% 4 22.05.2027 -
Eduardo Camavinga Real Madrid Ativo 167 / 168 40% 16 21.05.2027 Observar
Micky van de Ven Tottenham Ativo 156 / 158 40% 5 21.05.2027 -
Moisés Caicedo Chelsea Ativo 168 / 167 40% 9 19.05.2027 Observar
Willian Pacho Juventus Rejeitado 167 / 164 40% 3 19.05.2027 Rejeitar
William Saliba Arsenal Ativo 176 / 177 40% 9 16.05.2027 -
Rodri Barcelona Ativo 178 / 181 40% 6 16.05.2027 -
Tino Livramento Newcastle United Ativo 158 / 162 40% 6 13.05.2027 -
Pedri Barcelona Ativo 180 / 181 40% 8 13.05.2027 -
Wesley Fofana Chelsea Ativo 160 / 161 40% 3 13.05.2027 -
Trent Alexander-Arnold Real Madrid Ativo 162 / 162 40% 2 12.05.2027 -
Fabián Manchester United Ativo 165 / 164 40% 1 09.05.2027 -
Sven Botman Newcastle United Ativo 158 / 161 40% 10 08.05.2027 -
Levi Colwill Chelsea Ativo 160 / 161 40% 19 05.05.2027 -
Jurriën Timber Arsenal Ativo 162 / 157 40% 8 03.05.2027 -
Sandro Tonali Tottenham Ativo 174 / 175 40% 7 25.04.2027 -
Matheus Nunes Manchester City Ativo 161 / 153 40% 1 19.04.2027 -
Jan Paul van Hecke Tottenham Ativo 161 / 157 40% 2 14.04.2027 -
Federico Valverde Real Madrid Ativo 180 / 174 40% 5 10.04.2027 -
Enzo Fernández Manchester City Ativo 168 / 174 40% 1 09.03.2027 -
Jules Koundé Barcelona Ativo 162 / 164 40% 2 08.03.2027 -
Ryan Gravenberch Liverpool Ativo 160 / 161 40% 5 05.03.2027 -
Gabriel Arsenal Ativo 171 / 173 40% 1 24.02.2027 -
Tijjani Reijnders Al-Qadisiyah Ativo 157 / 168 40% 1 03.02.2027 -
Gavi Barcelona Ativo 154 / 157 40% 10 02.02.2027 -
Ferran Torres Paris Saint-Germain Ativo 169 / 162 40% 4 30.12.2026 -
Kenan Yıldız Juventus Ativo 163 / 162 40% 4 30.12.2026 -
Adam Wharton Crystal Palace Ativo 148 / 151 40% 5 29.12.2026 -
Ousmane Dembélé Paris Saint-Germain Ativo 181 / 185 40% 6 29.12.2026 -
Christian Pulisic AC Milan Ativo 163 / 159 40% 4 29.12.2026 -
Julián Álvarez Atlético Madrid Ativo 176 / 171 40% 2 29.12.2026 -
Lautaro Martínez Inter Ativo 169 / 171 40% 4 27.12.2026 -
Marcus Thuram Inter Ativo 173 / 170 40% 3 27.12.2026 -
Gabriel Martinelli Arsenal Ativo 160 / 162 40% 1 25.12.2026 -
Rodolfo Arteaga Liverpool Ativo 162 / 159 40% 5 24.12.2026 -
Bradley Barcola Liverpool Ativo 167 / 162 40% 5 23.12.2026 -
Rafael Leão Galatasaray Ativo 160 / 151 40% 2 23.12.2026 -
Rodrygo Real Madrid Ativo 169 / 161 40% 4 21.12.2026 -
Nacer Mignolet KV Oostende Ativo 127 / 136 40% 3 21.12.2026 -
Othmane Maamma Watford Ativo 126 / 128 40% 2 21.12.2026 -
Hugo Ekitiké Liverpool Ativo 161 / 157 40% 1 21.12.2026 -
Chemsdine Talbi Sunderland Ativo 136 / 146 40% 5 20.12.2026 -
Tristan Degreef Anderlecht Ativo 129 / 124 40% 1 20.12.2026 -
Jarrad Branthwaite Everton Ativo 149 / 156 40% 5 18.12.2026 -
Rayan Cherki Manchester City Ativo 167 / 161 40% 5 17.12.2026 -
Antoine Semenyo Manchester City Ativo 161 / 159 40% 2 17.12.2026 -
Dani Olmo Barcelona Ativo 159 / 161 40% 1 13.12.2026 -
Désiré Doué Paris Saint-Germain Ativo 158 / 165 40% 3 11.12.2026 -
Elliot Anderson Manchester City Ativo 148 / 155 40% 4 10.12.2026 -
Mile Svilar Barcelona Ativo 159 / 155 40% 3 06.12.2026 -
Đorđe Petrović Bournemouth Ativo 146 / 144 40% 2 06.12.2026 -
Anatolii Trubin Tottenham Ativo 153 / 151 40% 1 06.12.2026 -
El Hadji Malick Diouf Brentford Ativo 142 / 146 40% 3 03.12.2026 -
Robert FC Copenhagen Ativo 133 / 124 40% 5 03.12.2026 -
Jorrel Hato Chelsea Ativo 147 / 149 40% 2 01.12.2026 -
Ian Maatsen Aston Villa Ativo 150 / 150 40% 1 01.12.2026 -
Noah Sadiki Sunderland Ativo 144 / 148 40% 3 30.11.2026 -
Roger Fernandes Al-Ittihad Ativo 132 / 128 40% 1 30.11.2026 -
Yusi Alavés Ativo 130 / 135 40% 2 27.11.2026 -
Malick Fofana Sunderland Ativo 145 / 140 40% 3 26.11.2026 -
Eliesse Ben Seghir Bayer Leverkusen Ativo 136 / 143 40% 2 25.11.2026 -
Arda Güler Real Madrid Ativo 147 / 147 40% 1 25.11.2026 -
Ethan Mbappé LOSC Lille Ativo 128 / 139 40% 1 25.11.2026 -
Andriy Lunin Real Madrid Ativo 154 / 155 40% 1 21.11.2026 -
Warren Zaïre-Emery Paris Saint-Germain Ativo 160 / 160 40% 5 19.11.2026 -
Mathys Tel Stade Rennais Ativo 146 / 145 40% 3 17.11.2026 -
Leo Román Deportivo La Coruña Ativo 143 / 143 40% 2 15.11.2026 -
Karim Konaté Red Bull Salzburg Ativo 138 / 144 40% 1 15.11.2026 -
Castello Lukeba RB Leipzig Ativo 150 / 148 40% 6 14.11.2026 -
Assane Diao Como Ativo 146 / 150 40% 1 12.11.2026 Mais informações
Álvaro Carreras Real Madrid Ativo 150 / 147 40% 1 10.11.2026 -
Diogo Costa Manchester United Ativo 163 / 163 40% 2 09.11.2026 -
Didier Robert FC Augsburg Ativo 148 / 153 40% 2 07.11.2026 -
Julian von Moos Grasshopper Ativo 116 / 119 40% 2 07.11.2026 -
Assan Ouédraogo RB Leipzig Ativo 142 / 143 40% 3 04.11.2026 -
Nico O'Reilly Manchester City Ativo 155 / 155 40% 7 03.11.2026 -
Ayoube Amaimouni-Echghouyab Eintracht Frankfurt Ativo 127 / 130 40% 4 02.11.2026 -
Rico Lewis Manchester City Ativo 150 / 149 40% 2 02.11.2026 -
Karim Adeyemi Barcelona Ativo 152 / 153 40% 2 30.10.2026 -
Ibrahim Salah Basel Ativo 127 / 118 40% 1 30.10.2026 -
Philippe Keny Zurich Ativo 121 / 115 40% 2 27.10.2026 -
Maurice Malone Minnesota United FC Ativo 126 / 127 40% 1 27.10.2026 -
Ilyas Ansah Hull City Ativo 125 / 130 40% 7 25.10.2026 -
Maurits Kjærgaard Red Bull Salzburg Ativo 126 / 127 40% 2 25.10.2026 -
David Nieland Chernomorets Ativo 90 / 93 40% 1 25.10.2026 -
Matteo di Giusto Luzern Ativo 127 / 118 40% 1 25.10.2026 -
Juan-José Perea Zurich Ativo 121 / 123 40% 1 19.10.2026 -
Seedy Jatta Sturm Graz Ativo 122 / 117 40% 1 19.10.2026 -
Gianluigi Donnarumma Manchester City Ativo 174 / 174 40% 1 19.10.2026 -
Andrej Ilić Union Berlin Ativo 126 / 130 40% 1 16.10.2026 -
Can Uzun Eintracht Frankfurt Ativo 142 / 148 40% 1 16.10.2026 Mais informações
Sinan Karweina Luzern Ativo 111 / 112 40% 2 12.10.2026 -
Nicolò Rovella Lazio Ativo 154 / 155 40% 2 10.10.2026 -
Giacomo Vrioni Wolfsberger AC Ativo 116 / 116 40% 1 23.09.2026 -
Claudy M'Buyi Rapid Wien Ativo 113 / 114 40% 1 23.09.2026 -
Antonio Verinac St. Gallen Ativo 91 / 95 40% 1 20.09.2026 -
Vinícius Júnior Real Madrid Ativo 171 / 176 40% 1 18.09.2026 -
Marlon Mustapha Altach Ativo 111 / 111 40% 1 17.09.2026 -
Johnny Cardoso Atlético Madrid Ativo 157 / 153 40% 1 12.09.2026 -
Kai Havertz Arsenal Ativo 155 / 159 40% 1 08.09.2026 -
Lukas Nmecha Leeds United Ativo 132 / 127 40% 1 08.09.2026 -
Christian Kofane Bayer Leverkusen Ativo 129 / 134 40% 2 05.09.2026 -
Leo Sauer VfB Stuttgart Ativo 134 / 140 40% 1 31.08.2026 -
Lucas Bergvall Tottenham Ativo 146 / 148 40% 1 18.08.2026 -
Alexander Isak Liverpool Ativo 171 / 173 40% 1 01.08.2026 -